Time;durP1;ratioP1;P1;durP2;ratioP2;P2;SDS_P1;SDS_P2;PMS_P1;PMS_P2;Temp;Humidity;BMP_temperature;BMP_pressure;BME280_temperature;BME280_humidity;BME280_pressure;Samples;Min_cycle;Max_cycle;Signal;HPM_P1;HPM_P2
2022/12/12 00:02:19;;;;;;;;;;;2.40;83.70;;;;;;5034663;28;19969;-77
2022/12/12 00:04:44;;;;;;;;;;;2.30;83.80;;;;;;5035723;28;19920;-77
2022/12/12 00:07:10;;;;;;;;;;;2.20;83.90;;;;;;5040029;28;19913;-77
2022/12/12 00:09:35;;;;;;;;;;;2.20;84.20;;;;;;5037197;28;19917;-79
2022/12/12 00:12:00;;;;;;;;;;;2.30;84.00;;;;;;5034445;28;19919;-79
2022/12/12 00:14:26;;;;;;;;;;;2.30;83.90;;;;;;5025902;28;19921;-76
2022/12/12 00:16:51;;;;;;;;;;;2.20;84.00;;;;;;5026752;28;19936;-79
2022/12/12 00:19:17;;;;;;;;;;;2.20;84.20;;;;;;5031266;28;20027;-78
2022/12/12 00:21:42;;;;;;;;;;;2.10;84.60;;;;;;5030099;28;19921;-78
2022/12/12 00:24:08;;;;;;;;;;;2.10;84.60;;;;;;5040049;28;19912;-78
2022/12/12 00:26:34;;;;;;;;;;;2.10;84.70;;;;;;5042467;28;19913;-77
2022/12/12 00:29:00;;;;;;;;;;;2.10;84.60;;;;;;5030719;28;19917;-77
2022/12/12 00:31:26;;;;;;;;;;;2.20;84.80;;;;;;5033891;28;19924;-77
2022/12/12 00:33:52;;;;;;;;;;;2.20;84.80;;;;;;5041043;28;19912;-79
2022/12/12 00:36:19;;;;;;;;;;;2.30;84.50;;;;;;5043480;28;20294;-78
2022/12/12 00:38:44;;;;;;;;;;;2.30;84.40;;;;;;5028405;28;19924;-79
2022/12/12 00:41:10;;;;;;;;;;;2.30;84.40;;;;;;5033819;28;19913;-78
2022/12/12 00:43:35;;;;;;;;;;;2.30;84.60;;;;;;5032019;28;20381;-78
2022/12/12 00:46:01;;;;;;;;;;;2.30;84.50;;;;;;5030689;28;19913;-77
2022/12/12 00:48:27;;;;;;;;;;;2.30;84.50;;;;;;5028810;28;19999;-79
2022/12/12 00:50:53;;;;;;;;;;;2.30;84.50;;;;;;5041182;28;19913;-79
2022/12/12 00:53:18;;;;;;;;;;;2.30;84.50;;;;;;5029586;28;20436;-79
2022/12/12 00:55:44;;;;;;;;;;;2.30;84.40;;;;;;5031683;28;19989;-79
2022/12/12 00:58:09;;;;;;;;;;;2.30;84.30;;;;;;5048782;28;19905;-76
2022/12/12 01:00:35;;;;;;;;;;;2.30;84.40;;;;;;5050749;22;19935;-81
2022/12/12 01:03:00;;;;;;;;;;;2.20;84.60;;;;;;5070591;28;19974;-81
2022/12/12 01:05:26;;;;;;;;;;;2.20;84.60;;;;;;5082424;28;20003;-81
2022/12/12 01:07:52;;;;;;;;;;;2.20;84.90;;;;;;5076779;28;19919;-80
2022/12/12 01:10:18;;;;;;;;;;;2.20;84.70;;;;;;5059519;28;19920;-79
2022/12/12 01:12:44;;;;;;;;;;;2.20;84.80;;;;;;5064331;28;19919;-81
2022/12/12 01:15:09;;;;;;;;;;;2.20;84.90;;;;;;5069820;28;19912;-80
2022/12/12 01:17:36;;;;;;;;;;;2.20;84.90;;;;;;5076881;28;19976;-80
2022/12/12 01:20:03;;;;;;;;;;;2.20;84.80;;;;;;5075542;28;19926;-80
2022/12/12 01:22:29;;;;;;;;;;;2.20;84.90;;;;;;5072512;28;19976;-81
2022/12/12 01:24:55;;;;;;;;;;;2.20;84.80;;;;;;5063176;28;21441;-80
2022/12/12 01:27:21;;;;;;;;;;;2.30;84.80;;;;;;5059274;28;20337;-81
2022/12/12 01:29:47;;;;;;;;;;;2.30;84.70;;;;;;5054349;28;19954;-81
2022/12/12 01:32:13;;;;;;;;;;;2.30;84.70;;;;;;5052693;28;19958;-82
2022/12/12 01:34:38;;;;;;;;;;;2.30;84.60;;;;;;5059233;28;19984;-82
2022/12/12 01:37:04;;;;;;;;;;;2.20;84.60;;;;;;5059546;28;19913;-82
2022/12/12 01:39:29;;;;;;;;;;;2.20;84.80;;;;;;5057976;28;20189;-82
2022/12/12 01:41:54;;;;;;;;;;;2.20;84.90;;;;;;5061698;28;19913;-82
2022/12/12 01:44:39;;;;;;;;;;;2.20;84.90;;;;;;5055240;28;19913;-82
2022/12/12 01:47:04;;;;;;;;;;;2.30;84.90;;;;;;5057162;28;19919;-81
2022/12/12 01:49:32;;;;;;;;;;;2.30;84.70;;;;;;5053228;28;19912;-81
2022/12/12 01:51:59;;;;;;;;;;;2.20;84.90;;;;;;5066163;28;19913;-81
2022/12/12 01:54:27;;;;;;;;;;;2.20;85.10;;;;;;5070177;28;20264;-81
2022/12/12 01:56:55;;;;;;;;;;;2.10;85.20;;;;;;5075204;28;19912;-81
2022/12/12 01:59:23;;;;;;;;;;;2.10;85.30;;;;;;5049795;28;19920;-82
2022/12/12 02:01:49;;;;;;;;;;;2.10;85.30;;;;;;5057301;28;20011;-81
2022/12/12 02:04:15;;;;;;;;;;;2.10;85.10;;;;;;5054524;28;19920;-81
2022/12/12 02:06:41;;;;;;;;;;;2.10;85.20;;;;;;5063323;28;19913;-81
2022/12/12 02:09:08;;;;;;;;;;;2.10;85.10;;;;;;5053160;28;19912;-81
2022/12/12 02:11:36;;;;;;;;;;;2.10;85.60;;;;;;5053417;28;19959;-80
2022/12/12 02:14:02;;;;;;;;;;;2.20;85.30;;;;;;5052399;28;20500;-81
2022/12/12 02:16:38;;;;;;;;;;;2.20;85.40;;;;;;5064197;28;19922;-80
2022/12/12 02:19:22;;;;;;;;;;;2.20;85.40;;;;;;5059509;28;19913;-81
2022/12/12 02:21:54;;;;;;;;;;;2.20;85.40;;;;;;5061108;28;19978;-81
2022/12/12 02:24:37;;;;;;;;;;;2.30;85.30;;;;;;5056931;28;19921;-80
2022/12/12 02:27:05;;;;;;;;;;;2.30;85.30;;;;;;5050967;28;19913;-81
2022/12/12 02:29:52;;;;;;;;;;;2.20;85.30;;;;;;5055679;28;20435;-81
2022/12/12 02:32:20;;;;;;;;;;;2.20;85.40;;;;;;5062213;28;19955;-81
2022/12/12 02:34:48;;;;;;;;;;;2.20;85.70;;;;;;5056016;28;19968;-82
2022/12/12 02:37:17;;;;;;;;;;;2.20;85.60;;;;;;5066464;28;19912;-81
2022/12/12 02:39:46;;;;;;;;;;;2.20;85.50;;;;;;5059982;28;20267;-81
2022/12/12 02:42:38;;;;;;;;;;;2.30;85.20;;;;;;5056208;28;20298;-81
2022/12/12 02:45:16;;;;;;;;;;;2.30;84.80;;;;;;5050262;28;19920;-81
2022/12/12 02:47:46;;;;;;;;;;;2.30;85.10;;;;;;5052804;28;20030;-80
2022/12/12 02:50:15;;;;;;;;;;;2.30;85.00;;;;;;5088498;28;19917;-81
2022/12/12 02:52:45;;;;;;;;;;;2.30;85.20;;;;;;5068477;28;20446;-82
2022/12/12 02:55:10;;;;;;;;;;;2.30;85.00;;;;;;5059009;28;19913;-80
2022/12/12 02:57:36;;;;;;;;;;;2.10;85.40;;;;;;5056106;28;19920;-82
2022/12/12 03:00:04;;;;;;;;;;;2.20;85.50;;;;;;5059210;28;19919;-82
2022/12/12 03:02:45;;;;;;;;;;;2.20;85.50;;;;;;5053946;28;20374;-81
2022/12/12 03:08:21;;;;;;;;;;;2.10;85.30;;;;;;5053482;28;19966;-82
2022/12/12 03:10:57;;;;;;;;;;;2.10;85.30;;;;;;5066095;28;19921;-81
2022/12/12 03:13:26;;;;;;;;;;;2.00;85.50;;;;;;5060376;28;19920;-81
2022/12/12 03:15:51;;;;;;;;;;;2.00;85.80;;;;;;5057695;28;19920;-82
2022/12/12 03:18:20;;;;;;;;;;;2.00;85.80;;;;;;5060216;28;20317;-81
2022/12/12 03:20:49;;;;;;;;;;;1.90;85.90;;;;;;5068288;28;20401;-82
2022/12/12 03:23:17;;;;;;;;;;;2.00;86.10;;;;;;5058048;28;20377;-81
2022/12/12 03:25:57;;;;;;;;;;;2.00;86.10;;;;;;5048216;28;19913;-81
2022/12/12 03:28:30;;;;;;;;;;;2.10;86.00;;;;;;5063750;28;20285;-80
2022/12/12 03:30:56;;;;;;;;;;;2.10;85.70;;;;;;5087889;28;19905;-80
2022/12/12 03:33:28;;;;;;;;;;;2.10;85.70;;;;;;5083892;28;19912;-80
2022/12/12 03:35:57;;;;;;;;;;;2.10;85.50;;;;;;5066837;28;19913;-81
2022/12/12 03:38:24;;;;;;;;;;;2.00;85.50;;;;;;5064203;28;20012;-81
2022/12/12 03:41:01;;;;;;;;;;;1.90;85.70;;;;;;5065444;28;19913;-81
2022/12/12 03:43:29;;;;;;;;;;;1.90;85.90;;;;;;5059760;28;19924;-81
2022/12/12 03:45:54;;;;;;;;;;;2.00;86.10;;;;;;5073110;28;19931;-82
2022/12/12 03:48:32;;;;;;;;;;;2.10;85.90;;;;;;5059856;28;20008;-81
2022/12/12 03:51:05;;;;;;;;;;;1.90;85.90;;;;;;5064452;28;20290;-81
2022/12/12 03:53:35;;;;;;;;;;;1.80;86.20;;;;;;5062880;28;19913;-82
2022/12/12 03:56:06;;;;;;;;;;;1.70;86.50;;;;;;5055986;28;19936;-81
2022/12/12 03:58:39;;;;;;;;;;;1.70;86.70;;;;;;5065317;28;19920;-81
2022/12/12 04:01:07;;;;;;;;;;;1.80;86.40;;;;;;5057280;28;19991;-82
2022/12/12 04:03:42;;;;;;;;;;;1.80;86.30;;;;;;5064245;28;19924;-82
2022/12/12 04:06:26;;;;;;;;;;;1.70;86.20;;;;;;5059860;28;20553;-82
2022/12/12 04:14:40;;;;;;;;;;;1.80;86.60;;;;;;5067302;28;19958;-82
2022/12/12 04:17:10;;;;;;;;;;;1.90;86.30;;;;;;5058112;28;20402;-82
2022/12/12 04:25:17;;;;;;;;;;;2.00;86.60;;;;;;5057908;28;19919;-81
2022/12/12 04:27:45;;;;;;;;;;;2.10;86.30;;;;;;5063012;28;19935;-82
2022/12/12 04:30:12;;;;;;;;;;;2.10;86.20;;;;;;5061508;28;19912;-81
2022/12/12 04:32:40;;;;;;;;;;;2.10;86.00;;;;;;5062105;28;20390;-81
2022/12/12 04:35:06;;;;;;;;;;;2.10;85.80;;;;;;5055018;28;19919;-81
2022/12/12 04:37:37;;;;;;;;;;;2.10;85.80;;;;;;5060966;28;20571;-81
2022/12/12 04:40:05;;;;;;;;;;;2.20;85.60;;;;;;5068220;28;19919;-82
2022/12/12 04:42:33;;;;;;;;;;;2.10;85.50;;;;;;5059548;28;19916;-82
2022/12/12 04:45:05;;;;;;;;;;;2.10;85.70;;;;;;5057106;28;19917;-81
2022/12/12 04:47:32;;;;;;;;;;;2.10;85.70;;;;;;5055280;28;19920;-82
2022/12/12 04:49:59;;;;;;;;;;;2.20;85.50;;;;;;5059484;28;19916;-81
2022/12/12 04:52:26;;;;;;;;;;;2.20;85.40;;;;;;5062045;28;19921;-82
2022/12/12 04:55:00;;;;;;;;;;;2.10;85.20;;;;;;5064035;28;19919;-82
2022/12/12 04:57:32;;;;;;;;;;;2.10;85.30;;;;;;5064375;28;20318;-81
2022/12/12 04:59:58;;;;;;;;;;;2.10;85.40;;;;;;5058759;28;19912;-82
2022/12/12 05:02:29;;;;;;;;;;;2.10;85.50;;;;;;5061559;28;19986;-83
2022/12/12 05:05:01;;;;;;;;;;;2.20;85.50;;;;;;5054204;28;19920;-82
2022/12/12 05:07:26;;;;;;;;;;;2.20;85.60;;;;;;5058632;28;20294;-81
2022/12/12 05:09:51;;;;;;;;;;;2.20;85.30;;;;;;5055450;28;19924;-82
2022/12/12 05:12:17;;;;;;;;;;;2.10;85.40;;;;;;5058404;28;19921;-81
2022/12/12 05:14:43;;;;;;;;;;;2.10;85.50;;;;;;5061731;28;19913;-82
2022/12/12 05:17:12;;;;;;;;;;;2.00;85.90;;;;;;5050303;28;19913;-81
2022/12/12 05:19:38;;;;;;;;;;;1.90;86.10;;;;;;5056873;28;19932;-82
2022/12/12 05:22:03;;;;;;;;;;;2.00;85.90;;;;;;5056940;28;20288;-82
2022/12/12 05:24:30;;;;;;;;;;;2.00;85.60;;;;;;5056431;28;20011;-82
2022/12/12 05:26:56;;;;;;;;;;;1.80;85.50;;;;;;5066457;28;19920;-82
2022/12/12 05:29:22;;;;;;;;;;;1.80;85.60;;;;;;5058957;28;19966;-83
2022/12/12 05:31:47;;;;;;;;;;;1.70;85.60;;;;;;5061229;28;19916;-82
2022/12/12 05:34:13;;;;;;;;;;;1.60;85.90;;;;;;5059633;28;19959;-82
2022/12/12 05:36:38;;;;;;;;;;;1.60;85.90;;;;;;5066977;28;19917;-82
2022/12/12 05:39:04;;;;;;;;;;;1.60;85.90;;;;;;5057598;28;19990;-82
2022/12/12 05:41:29;;;;;;;;;;;1.60;86.00;;;;;;5057982;28;19920;-82
2022/12/12 05:43:55;;;;;;;;;;;1.60;86.20;;;;;;5058295;28;20011;-82
2022/12/12 05:46:20;;;;;;;;;;;1.60;86.10;;;;;;5071840;28;19917;-82
2022/12/12 05:48:49;;;;;;;;;;;1.50;86.10;;;;;;5053910;28;19944;-82
2022/12/12 05:51:18;;;;;;;;;;;1.60;86.10;;;;;;5058468;28;19913;-82
2022/12/12 05:53:43;;;;;;;;;;;1.60;86.20;;;;;;5049674;28;19955;-82
2022/12/12 05:56:10;;;;;;;;;;;1.60;86.20;;;;;;5057677;28;19913;-84
2022/12/12 05:58:36;;;;;;;;;;;1.70;86.20;;;;;;5052331;28;19913;-81
2022/12/12 06:01:02;;;;;;;;;;;1.70;86.00;;;;;;5060656;28;19971;-83
2022/12/12 06:03:27;;;;;;;;;;;1.60;86.00;;;;;;5051870;28;20379;-80
2022/12/12 06:05:52;;;;;;;;;;;1.60;86.20;;;;;;5058795;28;19959;-81
2022/12/12 06:08:18;;;;;;;;;;;1.60;86.20;;;;;;5051014;28;20101;-81
2022/12/12 06:10:44;;;;;;;;;;;1.60;86.30;;;;;;5043631;28;19920;-80
2022/12/12 06:13:10;;;;;;;;;;;1.70;86.00;;;;;;5043154;28;20468;-80
2022/12/12 06:15:37;;;;;;;;;;;1.80;85.90;;;;;;5048715;28;19913;-80
2022/12/12 06:18:03;;;;;;;;;;;1.80;85.50;;;;;;5052071;28;19908;-80
2022/12/12 06:20:29;;;;;;;;;;;1.80;85.60;;;;;;5048095;28;20400;-79
2022/12/12 06:22:54;;;;;;;;;;;1.80;85.90;;;;;;5041214;28;20375;-80
2022/12/12 06:25:20;;;;;;;;;;;1.80;85.90;;;;;;5058119;28;19913;-81
2022/12/12 06:27:46;;;;;;;;;;;1.70;86.00;;;;;;5057099;28;19913;-80
2022/12/12 06:30:11;;;;;;;;;;;1.80;86.10;;;;;;5045566;28;20020;-81
2022/12/12 06:32:37;;;;;;;;;;;1.80;86.10;;;;;;5045219;28;19932;-82
2022/12/12 06:35:02;;;;;;;;;;;1.90;85.80;;;;;;5052854;28;20012;-83
2022/12/12 06:37:28;;;;;;;;;;;1.90;85.70;;;;;;5045343;28;19927;-83
2022/12/12 06:39:53;;;;;;;;;;;1.80;85.70;;;;;;5052222;28;19921;-81
2022/12/12 06:42:19;;;;;;;;;;;1.70;85.90;;;;;;5052230;28;19932;-84
2022/12/12 06:44:44;;;;;;;;;;;1.60;85.90;;;;;;5070008;28;19960;-89
2022/12/12 06:47:10;;;;;;;;;;;1.70;85.90;;;;;;5069829;28;20378;-84
2022/12/12 06:49:36;;;;;;;;;;;1.70;85.60;;;;;;5068845;28;19905;-81
2022/12/12 06:52:01;;;;;;;;;;;1.60;85.80;;;;;;5076222;28;19901;-81
2022/12/12 06:54:27;;;;;;;;;;;1.60;86.00;;;;;;5076123;28;19949;-83
2022/12/12 06:56:52;;;;;;;;;;;1.60;86.00;;;;;;5069884;28;19915;-82
2022/12/12 07:01:53;;;;;;;;;;;1.60;85.80;;;;;;5057403;28;19925;-79
2022/12/12 07:04:19;;;;;;;;;;;1.50;85.80;;;;;;5063042;28;19928;-80
2022/12/12 07:06:44;;;;;;;;;;;1.40;85.80;;;;;;5070794;28;19921;-80
2022/12/12 07:09:10;;;;;;;;;;;1.30;86.00;;;;;;5069940;28;19927;-79
2022/12/12 07:11:37;;;;;;;;;;;1.40;86.20;;;;;;5072015;28;20003;-80
2022/12/12 07:14:06;;;;;;;;;;;1.30;85.90;;;;;;5074239;28;19908;-80
2022/12/12 07:16:32;;;;;;;;;;;1.20;85.90;;;;;;5066665;28;20738;-79
2022/12/12 07:18:57;;;;;;;;;;;1.20;85.60;;;;;;5066643;28;19920;-79
2022/12/12 07:21:23;;;;;;;;;;;1.10;85.90;;;;;;5065536;28;20451;-81
2022/12/12 07:23:48;;;;;;;;;;;1.10;86.00;;;;;;5061736;28;19920;-82
2022/12/12 07:26:15;;;;;;;;;;;1.10;85.90;;;;;;5074222;28;19912;-82
2022/12/12 07:28:41;;;;;;;;;;;1.10;86.10;;;;;;5075379;28;20320;-82
2022/12/12 07:31:07;;;;;;;;;;;1.10;86.10;;;;;;5075656;28;20363;-81
2022/12/12 07:33:33;;;;;;;;;;;1.10;85.90;;;;;;5067868;28;19916;-82
2022/12/12 07:35:58;;;;;;;;;;;1.10;85.80;;;;;;5061947;28;20506;-82
2022/12/12 07:38:24;;;;;;;;;;;1.20;85.80;;;;;;5070434;28;19913;-82
2022/12/12 07:40:50;;;;;;;;;;;1.10;85.60;;;;;;5072554;28;19968;-82
2022/12/12 07:43:15;;;;;;;;;;;1.10;85.40;;;;;;5070373;28;20031;-81
2022/12/12 07:45:44;;;;;;;;;;;1.10;85.30;;;;;;5072451;28;19997;-82
2022/12/12 07:48:11;;;;;;;;;;;1.10;85.20;;;;;;5074696;28;20362;-83
2022/12/12 07:50:37;;;;;;;;;;;1.10;85.40;;;;;;5074048;28;19970;-83
2022/12/12 07:53:02;;;;;;;;;;;1.10;85.40;;;;;;5072315;28;20008;-82
2022/12/12 07:55:44;;;;;;;;;;;1.10;85.50;;;;;;5075125;28;19948;-82
2022/12/12 07:58:15;;;;;;;;;;;1.10;85.30;;;;;;5076193;28;19920;-82
2022/12/12 08:00:44;;;;;;;;;;;1.00;85.40;;;;;;5077321;28;19974;-80
2022/12/12 08:03:09;;;;;;;;;;;0.80;86.00;;;;;;5079598;28;19924;-81
2022/12/12 08:05:38;;;;;;;;;;;0.90;85.80;;;;;;5076491;28;19922;-81
2022/12/12 08:08:03;;;;;;;;;;;0.80;85.80;;;;;;5053180;28;19963;-83
2022/12/12 08:10:29;;;;;;;;;;;0.80;85.80;;;;;;5062164;28;20275;-81
2022/12/12 08:13:03;;;;;;;;;;;0.80;85.80;;;;;;5053812;28;19971;-81
2022/12/12 08:15:36;;;;;;;;;;;0.70;86.10;;;;;;5072662;28;19908;-81
2022/12/12 08:18:02;;;;;;;;;;;0.70;86.50;;;;;;5059418;28;20087;-81
2022/12/12 08:20:27;;;;;;;;;;;0.70;86.60;;;;;;5072578;28;19920;-80
2022/12/12 08:22:53;;;;;;;;;;;0.70;86.70;;;;;;5063647;28;19916;-83
2022/12/12 08:25:18;;;;;;;;;;;0.70;86.70;;;;;;5071721;28;19923;-82
2022/12/12 08:27:44;;;;;;;;;;;0.70;86.70;;;;;;5070466;28;19913;-80
2022/12/12 08:30:09;;;;;;;;;;;0.70;86.60;;;;;;5078496;28;20003;-82
2022/12/12 08:32:35;;;;;;;;;;;0.70;86.60;;;;;;5070278;28;19919;-80
2022/12/12 08:35:01;;;;;;;;;;;0.70;86.80;;;;;;5080929;28;20300;-80
2022/12/12 08:37:27;;;;;;;;;;;0.70;87.10;;;;;;5083560;28;19919;-80
2022/12/12 08:39:52;;;;;;;;;;;0.80;86.90;;;;;;5067108;28;20019;-80
2022/12/12 08:42:17;;;;;;;;;;;0.80;86.90;;;;;;5065001;28;19923;-80
2022/12/12 08:44:43;;;;;;;;;;;0.80;86.90;;;;;;5070825;28;19935;-80
2022/12/12 08:47:09;;;;;;;;;;;0.70;86.80;;;;;;5061871;28;19908;-80
2022/12/12 08:49:34;;;;;;;;;;;0.60;86.90;;;;;;5072075;28;20276;-80
2022/12/12 08:52:00;;;;;;;;;;;0.50;87.10;;;;;;5065378;28;19912;-81
2022/12/12 08:54:26;;;;;;;;;;;0.50;87.20;;;;;;5072290;28;20433;-81
2022/12/12 08:56:52;;;;;;;;;;;0.50;87.30;;;;;;5063103;28;19916;-82
2022/12/12 08:59:17;;;;;;;;;;;0.60;87.30;;;;;;5065225;28;19958;-81
2022/12/12 09:01:43;;;;;;;;;;;0.70;87.40;;;;;;5067674;28;20287;-81
2022/12/12 09:04:08;;;;;;;;;;;0.80;87.00;;;;;;5055188;28;20007;-82
2022/12/12 09:06:34;;;;;;;;;;;0.80;86.90;;;;;;5049673;28;20284;-82
2022/12/12 09:08:59;;;;;;;;;;;0.80;86.80;;;;;;5048203;28;19913;-82
2022/12/12 09:11:25;;;;;;;;;;;0.90;86.70;;;;;;5064937;28;19971;-83
2022/12/12 09:13:51;;;;;;;;;;;0.90;86.50;;;;;;5056203;28;19919;-82
2022/12/12 09:16:18;;;;;;;;;;;0.90;86.50;;;;;;5072766;28;20420;-82
2022/12/12 09:18:43;;;;;;;;;;;1.00;86.60;;;;;;5066103;28;20280;-84
2022/12/12 09:21:09;;;;;;;;;;;1.20;86.80;;;;;;5070116;28;19913;-83
2022/12/12 09:23:35;;;;;;;;;;;1.30;86.40;;;;;;5076272;28;19919;-82
2022/12/12 09:26:04;;;;;;;;;;;1.40;86.10;;;;;;5071698;28;20284;-82
2022/12/12 09:28:30;;;;;;;;;;;1.50;85.90;;;;;;5076454;28;19913;-81
2022/12/12 09:30:55;;;;;;;;;;;1.60;85.70;;;;;;5071172;28;19917;-83
2022/12/12 09:33:21;;;;;;;;;;;1.50;85.70;;;;;;5067832;28;19912;-83
2022/12/12 09:35:54;;;;;;;;;;;1.50;85.70;;;;;;5089648;28;19958;-83
2022/12/12 09:38:20;;;;;;;;;;;1.60;85.70;;;;;;5065143;28;19913;-82
2022/12/12 09:40:57;;;;;;;;;;;1.60;85.80;;;;;;5073145;28;19952;-82
2022/12/12 09:43:25;;;;;;;;;;;1.70;85.90;;;;;;5065171;28;20376;-81
2022/12/12 09:45:50;;;;;;;;;;;1.70;85.80;;;;;;5074757;28;20391;-82
2022/12/12 09:48:25;;;;;;;;;;;1.90;85.70;;;;;;5070976;28;19958;-83
2022/12/12 09:50:51;;;;;;;;;;;2.00;85.20;;;;;;5068907;28;20039;-81
2022/12/12 09:53:18;;;;;;;;;;;2.00;84.90;;;;;;5062487;28;20054;-80
2022/12/12 09:55:53;;;;;;;;;;;2.00;85.00;;;;;;5064192;28;19913;-80
2022/12/12 09:58:21;;;;;;;;;;;2.10;84.70;;;;;;5066203;28;19916;-83
2022/12/12 10:00:51;;;;;;;;;;;2.10;84.40;;;;;;5102949;28;19924;-83
2022/12/12 10:03:22;;;;;;;;;;;2.10;84.50;;;;;;5085720;28;19920;-83
2022/12/12 10:06:02;;;;;;;;;;;2.20;84.30;;;;;;5059356;28;20390;-82
2022/12/12 10:08:42;;;;;;;;;;;2.20;84.00;;;;;;5067737;28;20436;-84
2022/12/12 10:11:48;;;;;;;;;;;2.30;83.90;;;;;;5070566;28;20456;-84
2022/12/12 10:13:58;;;;;;;;;;;2.40;83.70;;;;;;5071863;28;19912;-84
2022/12/12 10:16:23;;;;;;;;;;;2.30;83.40;;;;;;5069900;28;19909;-84
2022/12/12 10:18:50;;;;;;;;;;;2.40;83.60;;;;;;5069339;28;20328;-82
2022/12/12 10:21:22;;;;;;;;;;;2.30;83.70;;;;;;5074239;28;19912;-84
2022/12/12 10:23:52;;;;;;;;;;;2.30;83.40;;;;;;5069639;28;20290;-84
2022/12/12 10:26:20;;;;;;;;;;;2.30;83.40;;;;;;5064363;28;19909;-83
2022/12/12 10:28:49;;;;;;;;;;;2.40;83.00;;;;;;5069091;28;19913;-84
2022/12/12 10:31:31;;;;;;;;;;;2.40;82.70;;;;;;5072941;28;19993;-84
2022/12/12 10:34:02;;;;;;;;;;;2.40;82.30;;;;;;5069545;28;20372;-84
2022/12/12 10:36:47;;;;;;;;;;;2.30;82.50;;;;;;5069725;28;19920;-84
2022/12/12 10:39:19;;;;;;;;;;;2.30;82.60;;;;;;5101689;28;19919;-84
2022/12/12 10:41:44;;;;;;;;;;;2.30;82.50;;;;;;5065175;28;19913;-82
2022/12/12 10:44:22;;;;;;;;;;;2.30;82.10;;;;;;5073992;28;20363;-84
2022/12/12 10:46:51;;;;;;;;;;;2.20;81.90;;;;;;5065555;28;20007;-84
2022/12/12 10:49:21;;;;;;;;;;;2.20;81.90;;;;;;5066822;28;19917;-84
2022/12/12 10:51:50;;;;;;;;;;;2.20;82.20;;;;;;5051642;28;19922;-84
2022/12/12 10:54:35;;;;;;;;;;;2.20;82.20;;;;;;5066735;28;19947;-83
2022/12/12 10:57:04;;;;;;;;;;;2.20;82.10;;;;;;5064850;28;19916;-85
2022/12/12 10:59:29;;;;;;;;;;;2.20;81.70;;;;;;5069016;28;19916;-83
2022/12/12 11:01:58;;;;;;;;;;;2.30;81.70;;;;;;5065405;28;19917;-83
2022/12/12 11:04:26;;;;;;;;;;;2.20;81.30;;;;;;5063577;28;20018;-83
2022/12/12 11:06:59;;;;;;;;;;;2.20;81.70;;;;;;5065610;28;19928;-83
2022/12/12 11:09:29;;;;;;;;;;;2.10;81.60;;;;;;5066647;28;19927;-84
2022/12/12 11:11:58;;;;;;;;;;;2.10;82.10;;;;;;5067079;28;19912;-85
2022/12/12 11:14:33;;;;;;;;;;;2.20;81.60;;;;;;5062424;28;20459;-84
2022/12/12 11:16:58;;;;;;;;;;;2.30;81.90;;;;;;5063044;28;19917;-84
2022/12/12 11:19:24;;;;;;;;;;;2.40;81.70;;;;;;5063248;28;20258;-84
2022/12/12 11:21:54;;;;;;;;;;;2.40;81.30;;;;;;5063899;28;19920;-82
2022/12/12 11:24:21;;;;;;;;;;;2.40;80.90;;;;;;5085433;28;19956;-83
2022/12/12 11:27:09;;;;;;;;;;;2.40;80.80;;;;;;5072705;28;19912;-84
2022/12/12 11:29:53;;;;;;;;;;;2.30;81.20;;;;;;5068874;28;19913;-84
2022/12/12 11:32:24;;;;;;;;;;;2.50;81.30;;;;;;5064835;28;20291;-83
2022/12/12 11:34:54;;;;;;;;;;;2.50;81.20;;;;;;5070008;28;19982;-84
2022/12/12 11:37:22;;;;;;;;;;;2.60;80.50;;;;;;5074636;28;19920;-84
2022/12/12 11:39:57;;;;;;;;;;;2.60;80.60;;;;;;5069148;28;19912;-83
2022/12/12 11:42:29;;;;;;;;;;;2.60;79.60;;;;;;5071734;28;19913;-84
2022/12/12 11:45:03;;;;;;;;;;;2.50;80.00;;;;;;5067746;28;19959;-84
2022/12/12 11:47:40;;;;;;;;;;;2.60;79.70;;;;;;5084486;28;19913;-84
2022/12/12 11:50:15;;;;;;;;;;;2.60;80.00;;;;;;5067527;28;19963;-83
2022/12/12 11:52:40;;;;;;;;;;;2.60;79.40;;;;;;5074974;28;19916;-83
2022/12/12 11:55:12;;;;;;;;;;;2.50;78.90;;;;;;5099363;28;19971;-83
2022/12/12 11:57:47;;;;;;;;;;;2.50;79.40;;;;;;5075089;28;19980;-83
2022/12/12 12:00:17;;;;;;;;;;;2.60;79.80;;;;;;5073217;28;19927;-84
2022/12/12 12:03:02;;;;;;;;;;;2.70;79.50;;;;;;5080571;28;19921;-83
2022/12/12 12:05:27;;;;;;;;;;;2.70;79.60;;;;;;5075893;28;19920;-83
2022/12/12 12:07:58;;;;;;;;;;;2.80;79.70;;;;;;5069928;28;19909;-83
2022/12/12 12:10:36;;;;;;;;;;;2.70;78.90;;;;;;5069070;28;19917;-83
2022/12/12 12:13:13;;;;;;;;;;;2.70;78.60;;;;;;5072643;28;20279;-84
2022/12/12 12:15:42;;;;;;;;;;;2.80;79.00;;;;;;5068192;28;20297;-83
2022/12/12 12:18:20;;;;;;;;;;;2.80;78.70;;;;;;5073983;28;20004;-83
2022/12/12 12:20:46;;;;;;;;;;;3.00;78.30;;;;;;5072001;28;19908;-81
2022/12/12 12:23:17;;;;;;;;;;;3.00;77.90;;;;;;5068639;28;19970;-82
2022/12/12 12:25:58;;;;;;;;;;;2.90;77.90;;;;;;5071701;28;19994;-81
2022/12/12 12:28:45;;;;;;;;;;;2.80;78.60;;;;;;5071328;28;19919;-82
2022/12/12 12:31:15;;;;;;;;;;;3.00;78.20;;;;;;5074029;28;19916;-83
2022/12/12 12:33:53;;;;;;;;;;;3.20;77.60;;;;;;5062642;28;19917;-84
2022/12/12 12:36:23;;;;;;;;;;;3.20;76.90;;;;;;5074350;28;19909;-83
2022/12/12 12:39:00;;;;;;;;;;;3.30;77.00;;;;;;5070292;28;19995;-84
2022/12/12 12:41:35;;;;;;;;;;;3.40;76.70;;;;;;5070865;28;20322;-83
2022/12/12 12:44:21;;;;;;;;;;;3.50;75.80;;;;;;5065888;28;19951;-84
2022/12/12 12:46:54;;;;;;;;;;;3.40;74.60;;;;;;5061487;28;19909;-83
2022/12/12 12:49:25;;;;;;;;;;;3.40;75.50;;;;;;5067652;28;19916;-82
2022/12/12 12:52:01;;;;;;;;;;;3.60;75.70;;;;;;5059104;28;20011;-83
2022/12/12 12:54:31;;;;;;;;;;;3.60;73.70;;;;;;5067951;28;19958;-83
2022/12/12 12:57:04;;;;;;;;;;;3.50;74.10;;;;;;5065836;28;19916;-82
2022/12/12 13:02:00;;;;;;;;;;;3.60;73.70;;;;;;5079819;28;19953;-80
2022/12/12 13:04:28;;;;;;;;;;;3.60;74.00;;;;;;5084415;28;20482;-80
2022/12/12 13:06:59;;;;;;;;;;;3.60;74.40;;;;;;5078579;28;19920;-84
2022/12/12 13:09:40;;;;;;;;;;;3.60;74.00;;;;;;5087477;28;19912;-80
2022/12/12 13:12:27;;;;;;;;;;;3.50;74.50;;;;;;5060745;28;21563;-79
2022/12/12 13:14:56;;;;;;;;;;;3.30;74.40;;;;;;5059231;28;19993;-80
2022/12/12 13:17:24;;;;;;;;;;;3.20;74.60;;;;;;5063501;28;19936;-80
2022/12/12 13:19:52;;;;;;;;;;;3.20;75.10;;;;;;5082433;28;19917;-81
2022/12/12 13:22:22;;;;;;;;;;;3.20;74.90;;;;;;5074997;28;19913;-80
2022/12/12 13:24:53;;;;;;;;;;;3.20;74.50;;;;;;5072588;28;19996;-79
2022/12/12 13:27:44;;;;;;;;;;;3.20;74.50;;;;;;5071931;28;19916;-79
2022/12/12 13:30:12;;;;;;;;;;;3.20;74.10;;;;;;5064644;28;19912;-80
2022/12/12 13:32:41;;;;;;;;;;;3.20;74.10;;;;;;5055312;28;19916;-79
2022/12/12 13:35:11;;;;;;;;;;;3.10;74.60;;;;;;5069982;28;19924;-80
2022/12/12 13:37:47;;;;;;;;;;;3.10;75.20;;;;;;5063805;28;19916;-82
2022/12/12 13:40:21;;;;;;;;;;;3.20;75.00;;;;;;5073569;28;19920;-82
2022/12/12 13:42:51;;;;;;;;;;;3.10;74.40;;;;;;5065832;28;19993;-83
2022/12/12 13:45:36;;;;;;;;;;;3.10;74.40;;;;;;5051660;28;19916;-82
2022/12/12 13:48:02;;;;;;;;;;;3.00;74.70;;;;;;5060690;28;19913;-81
2022/12/12 13:50:27;;;;;;;;;;;3.00;74.40;;;;;;5065826;28;19920;-81
2022/12/12 13:53:05;;;;;;;;;;;2.90;74.90;;;;;;5056239;28;20006;-81
2022/12/12 13:55:31;;;;;;;;;;;2.80;75.00;;;;;;5065697;28;19947;-79
2022/12/12 13:58:06;;;;;;;;;;;2.80;75.00;;;;;;5058734;28;19916;-80
2022/12/12 14:00:35;;;;;;;;;;;2.70;74.80;;;;;;5058982;28;19920;-80
2022/12/12 14:03:01;;;;;;;;;;;2.80;74.90;;;;;;5059661;28;20290;-80
2022/12/12 14:05:47;;;;;;;;;;;2.70;75.00;;;;;;5061786;28;19912;-81
2022/12/12 14:08:12;;;;;;;;;;;2.70;75.00;;;;;;5055338;28;20351;-80
2022/12/12 14:10:44;;;;;;;;;;;2.60;75.60;;;;;;5059117;28;19913;-82
2022/12/12 14:13:21;;;;;;;;;;;2.60;75.50;;;;;;5067351;28;19923;-81
2022/12/12 14:15:48;;;;;;;;;;;2.70;75.70;;;;;;5061593;28;19920;-80
2022/12/12 14:18:21;;;;;;;;;;;2.70;75.00;;;;;;5057565;28;20015;-81
2022/12/12 14:21:01;;;;;;;;;;;2.60;75.40;;;;;;5068187;28;19912;-81
2022/12/12 14:23:28;;;;;;;;;;;2.60;75.00;;;;;;5073777;28;19917;-80
2022/12/12 14:25:54;;;;;;;;;;;2.50;74.90;;;;;;5070647;28;20006;-81
2022/12/12 14:28:24;;;;;;;;;;;2.60;74.90;;;;;;5059217;28;19992;-81
2022/12/12 14:30:57;;;;;;;;;;;2.60;75.70;;;;;;5066426;28;19916;-80
2022/12/12 14:33:42;;;;;;;;;;;2.60;76.00;;;;;;5065586;28;19919;-80
2022/12/12 14:36:30;;;;;;;;;;;2.60;75.80;;;;;;5058724;28;20014;-80
2022/12/12 14:39:13;;;;;;;;;;;2.50;75.60;;;;;;5067556;28;19928;-79
2022/12/12 14:41:40;;;;;;;;;;;2.50;75.90;;;;;;5062789;28;19959;-81
2022/12/12 14:44:14;;;;;;;;;;;2.40;76.30;;;;;;5067502;28;19924;-80
2022/12/12 14:46:41;;;;;;;;;;;2.40;76.50;;;;;;5067080;28;20251;-79
2022/12/12 14:49:12;;;;;;;;;;;2.30;76.50;;;;;;5070414;28;19919;-80
2022/12/12 14:51:39;;;;;;;;;;;2.30;76.60;;;;;;5064740;28;19958;-81
2022/12/12 14:54:12;;;;;;;;;;;2.30;76.90;;;;;;5070492;28;20357;-79
2022/12/12 14:56:39;;;;;;;;;;;2.30;77.10;;;;;;5062753;28;19912;-81
2022/12/12 14:59:15;;;;;;;;;;;2.30;76.90;;;;;;5065286;28;19921;-83
2022/12/12 15:01:48;;;;;;;;;;;2.20;77.70;;;;;;5072792;28;19923;-81
2022/12/12 15:04:19;;;;;;;;;;;2.10;77.90;;;;;;5070774;28;20446;-80